Time;durP1;ratioP1;P1;durP2;ratioP2;P2;SDS_P1;SDS_P2;PMS_P1;PMS_P2;Temp;Humidity;BMP_temperature;BMP_pressure;BME280_temperature;BME280_humidity;BME280_pressure;Samples;Min_cycle;Max_cycle;Signal;HPM_P1;HPM_P2
2021/10/09 00:02:12;;;;;;;;;;;21.70;58.80;;;;;;5072472;28;20323;-56
2021/10/09 00:04:39;;;;;;;;;;;21.70;58.80;;;;;;5073177;28;19998;-56
2021/10/09 00:07:05;;;;;;;;;;;21.70;58.80;;;;;;5073710;28;19929;-59
2021/10/09 00:09:32;;;;;;;;;;;21.70;58.80;;;;;;5072314;28;19929;-56
2021/10/09 00:11:59;;;;;;;;;;;21.70;58.80;;;;;;5074174;28;19971;-59
2021/10/09 00:14:27;;;;;;;;;;;21.70;58.80;;;;;;5073979;28;20018;-58
2021/10/09 00:16:54;;;;;;;;;;;21.70;58.80;;;;;;5062301;28;19931;-58
2021/10/09 00:19:21;;;;;;;;;;;21.70;58.80;;;;;;5067675;28;20341;-55
2021/10/09 00:21:48;;;;;;;;;;;21.70;58.80;;;;;;5079545;28;19924;-57
2021/10/09 00:24:16;;;;;;;;;;;21.70;58.80;;;;;;5082916;28;19979;-58
2021/10/09 00:26:43;;;;;;;;;;;21.70;58.80;;;;;;5071354;28;19983;-54
2021/10/09 00:29:10;;;;;;;;;;;21.70;58.80;;;;;;5071969;28;19936;-55
2021/10/09 00:31:37;;;;;;;;;;;21.70;58.80;;;;;;5073330;28;20384;-57
2021/10/09 00:34:04;;;;;;;;;;;21.70;58.80;;;;;;5072757;28;20356;-57
2021/10/09 00:36:31;;;;;;;;;;;21.70;58.80;;;;;;5070428;28;20011;-57
2021/10/09 00:38:58;;;;;;;;;;;21.70;58.80;;;;;;5072753;28;19936;-58
2021/10/09 00:41:25;;;;;;;;;;;21.70;58.80;;;;;;5072939;28;20031;-56
2021/10/09 00:43:53;;;;;;;;;;;21.70;58.80;;;;;;5073684;28;19957;-58
2021/10/09 00:46:20;;;;;;;;;;;21.70;58.80;;;;;;5072680;28;20380;-54
2021/10/09 00:48:47;;;;;;;;;;;21.70;58.80;;;;;;5073798;28;19925;-54
2021/10/09 00:51:14;;;;;;;;;;;21.70;58.80;;;;;;5072431;28;19971;-57
2021/10/09 00:53:41;;;;;;;;;;;21.70;58.80;;;;;;5071984;28;19924;-58
2021/10/09 00:56:09;;;;;;;;;;;21.70;58.80;;;;;;5072688;28;19928;-55
2021/10/09 00:58:39;;;;;;;;;;;21.70;58.80;;;;;;5074037;28;19990;-53
2021/10/09 01:01:06;;;;;;;;;;;21.70;58.80;;;;;;5091845;28;19959;-58
2021/10/09 01:03:33;;;;;;;;;;;21.70;58.80;;;;;;5072927;28;20015;-57
2021/10/09 01:06:00;;;;;;;;;;;21.70;58.80;;;;;;5073135;28;20384;-57
2021/10/09 01:08:27;;;;;;;;;;;21.60;58.70;;;;;;5060704;28;19925;-56
2021/10/09 01:10:54;;;;;;;;;;;21.70;58.80;;;;;;5067361;28;20441;-56
2021/10/09 01:13:21;;;;;;;;;;;21.70;58.80;;;;;;5071829;28;19963;-56
2021/10/09 01:15:48;;;;;;;;;;;21.70;58.80;;;;;;5070847;28;19963;-57
2021/10/09 01:18:17;;;;;;;;;;;21.70;58.80;;;;;;5072230;28;19982;-58
2021/10/09 01:20:54;;;;;;;;;;;21.70;58.70;;;;;;5071804;28;19924;-58
2021/10/09 01:23:22;;;;;;;;;;;21.70;58.70;;;;;;5069472;28;19924;-58
2021/10/09 01:25:49;;;;;;;;;;;21.70;58.70;;;;;;5056863;28;19960;-58
2021/10/09 01:28:16;;;;;;;;;;;21.70;58.80;;;;;;5072123;28;20013;-56
2021/10/09 01:30:43;;;;;;;;;;;21.70;58.70;;;;;;5071257;28;19972;-53
2021/10/09 01:33:10;;;;;;;;;;;21.60;58.70;;;;;;5088403;28;20391;-58
2021/10/09 01:35:49;;;;;;;;;;;21.70;58.70;;;;;;5072865;28;19969;-58
2021/10/09 01:38:17;;;;;;;;;;;21.70;58.80;;;;;;5057710;28;19929;-57
2021/10/09 01:40:44;;;;;;;;;;;21.70;58.80;;;;;;5074268;28;19931;-54
2021/10/09 01:43:11;;;;;;;;;;;21.60;58.70;;;;;;5067379;28;19975;-56
2021/10/09 01:45:40;;;;;;;;;;;21.60;58.60;;;;;;5073122;28;19970;-55
2021/10/09 01:48:11;;;;;;;;;;;21.60;58.60;;;;;;5065235;28;19932;-54
2021/10/09 01:50:38;;;;;;;;;;;21.60;58.70;;;;;;5057802;28;19925;-58
2021/10/09 01:53:07;;;;;;;;;;;21.60;58.70;;;;;;5067731;28;19925;-54
2021/10/09 01:55:35;;;;;;;;;;;21.60;58.70;;;;;;5072656;28;19963;-57
2021/10/09 01:58:03;;;;;;;;;;;21.60;58.70;;;;;;5071839;28;19946;-57
2021/10/09 02:00:31;;;;;;;;;;;21.60;58.70;;;;;;5090316;28;19924;-57
2021/10/09 02:03:04;;;;;;;;;;;21.60;58.60;;;;;;5072010;28;19999;-58
2021/10/09 02:05:31;;;;;;;;;;;21.60;58.70;;;;;;5055320;28;19979;-58
2021/10/09 02:07:59;;;;;;;;;;;21.60;58.70;;;;;;5058744;28;19979;-57
2021/10/09 02:10:27;;;;;;;;;;;21.60;58.60;;;;;;5059864;28;20003;-57
2021/10/09 02:12:54;;;;;;;;;;;21.60;58.60;;;;;;5059785;28;20440;-56
2021/10/09 02:16:10;;;;;;;;;;;21.60;58.60;;;;;;5069380;28;19978;-54
2021/10/09 02:26:12;;;;;;;;;;;21.60;58.60;;;;;;5068210;28;19987;-56
2021/10/09 02:28:39;;;;;;;;;;;21.60;58.60;;;;;;5074827;28;19956;-56
2021/10/09 02:31:06;;;;;;;;;;;21.60;58.60;;;;;;5080690;28;20359;-56
2021/10/09 02:33:33;;;;;;;;;;;21.60;58.60;;;;;;5088473;28;19964;-56
2021/10/09 02:36:00;;;;;;;;;;;21.60;58.60;;;;;;5074859;28;19974;-55
2021/10/09 02:38:26;;;;;;;;;;;21.60;58.60;;;;;;5057494;28;19955;-57
2021/10/09 02:40:54;;;;;;;;;;;21.60;58.60;;;;;;5075241;28;19925;-56
2021/10/09 02:43:21;;;;;;;;;;;21.60;58.60;;;;;;5076204;28;20281;-55
2021/10/09 02:45:48;;;;;;;;;;;21.60;58.60;;;;;;5076271;28;19977;-57
2021/10/09 02:48:16;;;;;;;;;;;21.60;58.60;;;;;;5074398;28;19935;-56
2021/10/09 02:50:44;;;;;;;;;;;21.60;58.60;;;;;;5065762;28;20521;-54
2021/10/09 02:53:11;;;;;;;;;;;21.60;58.60;;;;;;5066201;28;19970;-58
2021/10/09 02:55:38;;;;;;;;;;;21.60;58.60;;;;;;5081569;28;19967;-57
2021/10/09 02:58:05;;;;;;;;;;;21.60;58.60;;;;;;5084411;28;19925;-56
2021/10/09 03:00:32;;;;;;;;;;;21.60;58.60;;;;;;5074529;28;20098;-54
2021/10/09 03:02:59;;;;;;;;;;;21.60;58.60;;;;;;5074699;28;19924;-56
2021/10/09 03:05:26;;;;;;;;;;;21.60;58.60;;;;;;5058308;28;20448;-56
2021/10/09 03:07:53;;;;;;;;;;;21.60;58.60;;;;;;5074778;28;20015;-59
2021/10/09 03:10:21;;;;;;;;;;;21.60;58.60;;;;;;5090720;28;19924;-55
2021/10/09 03:12:48;;;;;;;;;;;21.60;58.60;;;;;;5062930;28;19925;-56
2021/10/09 03:15:15;;;;;;;;;;;21.60;58.60;;;;;;5059120;28;20020;-56
2021/10/09 03:17:42;;;;;;;;;;;21.60;58.60;;;;;;5068792;28;19924;-56
2021/10/09 03:20:10;;;;;;;;;;;21.60;58.60;;;;;;5067006;28;19968;-57
2021/10/09 03:22:37;;;;;;;;;;;21.60;58.60;;;;;;5058993;28;19933;-56
2021/10/09 03:25:05;;;;;;;;;;;21.60;58.50;;;;;;5062648;28;19928;-56
2021/10/09 03:27:32;;;;;;;;;;;21.60;58.60;;;;;;5073123;28;19928;-56
2021/10/09 03:29:59;;;;;;;;;;;21.60;58.50;;;;;;5058687;28;20267;-55
2021/10/09 03:32:26;;;;;;;;;;;21.60;58.50;;;;;;5056953;28;19967;-57
2021/10/09 03:34:53;;;;;;;;;;;21.60;58.50;;;;;;5073500;28;19970;-57
2021/10/09 03:37:20;;;;;;;;;;;21.60;58.50;;;;;;5074830;28;19928;-58
2021/10/09 03:39:49;;;;;;;;;;;21.60;58.50;;;;;;5073942;28;19960;-56
2021/10/09 03:42:36;;;;;;;;;;;21.60;58.50;;;;;;5073567;28;20011;-57
2021/10/09 03:52:48;;;;;;;;;;;21.60;58.50;;;;;;5068372;28;20331;-55
2021/10/09 03:55:16;;;;;;;;;;;21.60;58.50;;;;;;5073342;28;20446;-57
2021/10/09 03:57:44;;;;;;;;;;;21.60;58.50;;;;;;5080344;28;19951;-57
2021/10/09 04:00:12;;;;;;;;;;;21.60;58.50;;;;;;5088731;28;19924;-58
2021/10/09 04:02:40;;;;;;;;;;;21.60;58.50;;;;;;5084791;28;19924;-55
2021/10/09 04:05:07;;;;;;;;;;;21.60;58.50;;;;;;5057866;28;19931;-59
2021/10/09 04:07:34;;;;;;;;;;;21.60;58.50;;;;;;5073195;28;20396;-56
2021/10/09 04:10:02;;;;;;;;;;;21.60;58.50;;;;;;5055879;28;19974;-54
2021/10/09 04:12:29;;;;;;;;;;;21.60;58.50;;;;;;5056737;28;20012;-56
2021/10/09 04:14:56;;;;;;;;;;;21.60;58.50;;;;;;5073263;28;19924;-55
2021/10/09 04:17:23;;;;;;;;;;;21.60;58.50;;;;;;5074012;28;19975;-54
2021/10/09 04:19:50;;;;;;;;;;;21.60;58.50;;;;;;5074609;28;19928;-57
2021/10/09 04:22:17;;;;;;;;;;;21.60;58.50;;;;;;5071333;28;19976;-57
2021/10/09 04:24:43;;;;;;;;;;;21.60;58.40;;;;;;5066669;28;19944;-55
2021/10/09 04:27:10;;;;;;;;;;;21.60;58.40;;;;;;5057701;28;19971;-55
2021/10/09 04:29:37;;;;;;;;;;;21.60;58.40;;;;;;5062586;28;20441;-54
2021/10/09 04:32:04;;;;;;;;;;;21.60;58.40;;;;;;5074368;28;19999;-58
2021/10/09 04:34:31;;;;;;;;;;;21.60;58.40;;;;;;5055265;28;19925;-57
2021/10/09 04:36:58;;;;;;;;;;;21.60;58.40;;;;;;5070459;28;19978;-58
2021/10/09 04:39:25;;;;;;;;;;;21.60;58.40;;;;;;5074072;28;19924;-56
2021/10/09 04:41:52;;;;;;;;;;;21.60;58.40;;;;;;5086733;28;20347;-58
2021/10/09 04:44:22;;;;;;;;;;;21.60;58.40;;;;;;5074992;28;19924;-56
2021/10/09 04:46:50;;;;;;;;;;;21.60;58.40;;;;;;5071518;28;19962;-54
2021/10/09 04:49:16;;;;;;;;;;;21.60;58.40;;;;;;5072217;28;19925;-55
2021/10/09 04:51:44;;;;;;;;;;;21.60;58.40;;;;;;5072329;28;19928;-57
2021/10/09 04:54:11;;;;;;;;;;;21.60;58.40;;;;;;5073464;28;19993;-58
2021/10/09 04:56:38;;;;;;;;;;;21.60;58.40;;;;;;5073213;28;20426;-54
2021/10/09 04:59:04;;;;;;;;;;;21.60;58.40;;;;;;5072109;28;19928;-55
2021/10/09 05:01:31;;;;;;;;;;;21.60;58.40;;;;;;5074071;28;20339;-57
2021/10/09 05:03:59;;;;;;;;;;;21.60;58.40;;;;;;5071779;28;19932;-57
2021/10/09 05:06:26;;;;;;;;;;;21.60;58.40;;;;;;5074058;28;20466;-55
2021/10/09 05:08:53;;;;;;;;;;;21.60;58.40;;;;;;5074717;28;19956;-54
2021/10/09 05:11:21;;;;;;;;;;;21.60;58.40;;;;;;5071915;28;19924;-53
2021/10/09 05:13:48;;;;;;;;;;;21.60;58.40;;;;;;5073362;28;20011;-55
2021/10/09 05:16:15;;;;;;;;;;;21.60;58.40;;;;;;5070634;28;20383;-58
2021/10/09 05:18:46;;;;;;;;;;;21.60;58.40;;;;;;5079858;28;19973;-55
2021/10/09 05:21:13;;;;;;;;;;;21.60;58.40;;;;;;5080289;28;19924;-53
2021/10/09 05:23:40;;;;;;;;;;;21.60;58.40;;;;;;5058713;28;19967;-53
2021/10/09 05:26:07;;;;;;;;;;;21.60;58.40;;;;;;5071914;28;19931;-58
2021/10/09 05:28:48;;;;;;;;;;;21.60;58.40;;;;;;5073707;28;19989;-56
2021/10/09 05:31:25;;;;;;;;;;;21.60;58.40;;;;;;5056171;28;20395;-57
2021/10/09 05:33:53;;;;;;;;;;;21.60;58.30;;;;;;5071033;28;19925;-58
2021/10/09 05:36:21;;;;;;;;;;;21.60;58.30;;;;;;5056270;28;19924;-56
2021/10/09 05:38:48;;;;;;;;;;;21.60;58.30;;;;;;5056234;28;19979;-55
2021/10/09 05:41:15;;;;;;;;;;;21.60;58.30;;;;;;5070200;28;20407;-56
2021/10/09 05:43:44;;;;;;;;;;;21.60;58.30;;;;;;5076045;28;19978;-56
2021/10/09 05:46:11;;;;;;;;;;;21.60;58.30;;;;;;5085809;28;19931;-55
2021/10/09 05:48:39;;;;;;;;;;;21.60;58.30;;;;;;5116078;27;19924;-56
2021/10/09 05:53:47;;;;;;;;;;;21.60;58.20;;;;;;5075416;28;19951;-54
2021/10/09 06:42:51;;;;;;;;;;;21.70;57.90;;;;;;5032549;28;19976;-59
2021/10/09 06:48:25;;;;;;;;;;;21.70;57.90;;;;;;5033699;28;19984;-57
2021/10/09 07:01:52;;;;;;;;;;;21.80;57.80;;;;;;5032360;28;19929;-57
2021/10/09 07:04:19;;;;;;;;;;;21.80;57.70;;;;;;5033223;28;19932;-57
2021/10/09 07:06:48;;;;;;;;;;;21.80;57.70;;;;;;5025870;28;19926;-57
2021/10/09 07:09:15;;;;;;;;;;;21.80;57.70;;;;;;5021238;28;19972;-58
2021/10/09 07:11:42;;;;;;;;;;;21.80;57.70;;;;;;5041551;28;19925;-58
2021/10/09 07:14:09;;;;;;;;;;;21.80;57.70;;;;;;5068229;28;19932;-57
2021/10/09 07:16:36;;;;;;;;;;;21.80;57.70;;;;;;5070633;28;19928;-58
2021/10/09 07:19:03;;;;;;;;;;;21.80;57.60;;;;;;5036783;28;20409;-54
2021/10/09 07:21:30;;;;;;;;;;;21.80;57.50;;;;;;5069638;28;20443;-58
2021/10/09 07:24:17;;;;;;;;;;;21.80;57.50;;;;;;5036474;28;19932;-56
2021/10/09 07:26:44;;;;;;;;;;;21.90;57.60;;;;;;5065478;28;20023;-57
2021/10/09 07:29:11;;;;;;;;;;;21.90;57.60;;;;;;5060997;28;20486;-56
2021/10/09 07:31:38;;;;;;;;;;;21.90;57.50;;;;;;5063689;28;19967;-57
2021/10/09 07:34:05;;;;;;;;;;;21.90;57.50;;;;;;5074937;28;20023;-55
2021/10/09 07:36:32;;;;;;;;;;;21.90;57.50;;;;;;5075039;28;19928;-58
2021/10/09 07:38:59;;;;;;;;;;;21.90;57.50;;;;;;5073561;28;19975;-58
2021/10/09 07:41:26;;;;;;;;;;;21.90;57.40;;;;;;5076177;28;21389;-56
2021/10/09 07:43:53;;;;;;;;;;;21.90;57.40;;;;;;5073839;28;19992;-57
2021/10/09 07:46:20;;;;;;;;;;;21.90;57.40;;;;;;5074761;28;19956;-57
2021/10/09 07:48:47;;;;;;;;;;;21.90;57.40;;;;;;5075282;28;19967;-54
2021/10/09 07:51:14;;;;;;;;;;;21.90;57.40;;;;;;5071370;28;19968;-56
2021/10/09 07:53:41;;;;;;;;;;;21.90;57.30;;;;;;5072231;28;19947;-58
2021/10/09 07:56:07;;;;;;;;;;;21.90;57.30;;;;;;5072684;28;19993;-57
2021/10/09 07:58:34;;;;;;;;;;;21.90;57.30;;;;;;5073246;28;19928;-56
2021/10/09 08:01:01;;;;;;;;;;;21.90;57.30;;;;;;5071870;28;19928;-56
2021/10/09 08:03:28;;;;;;;;;;;21.90;57.20;;;;;;5080111;28;19924;-58
2021/10/09 08:05:55;;;;;;;;;;;22.00;57.30;;;;;;5082827;28;20011;-58
2021/10/09 08:08:23;;;;;;;;;;;21.90;57.20;;;;;;5071099;28;19925;-57
2021/10/09 08:10:50;;;;;;;;;;;22.00;57.30;;;;;;5058303;28;19930;-57
2021/10/09 08:13:17;;;;;;;;;;;22.00;57.30;;;;;;5057350;28;19927;-59
2021/10/09 08:15:45;;;;;;;;;;;21.90;57.10;;;;;;5073440;28;19960;-56
2021/10/09 08:18:12;;;;;;;;;;;21.90;57.20;;;;;;5060402;28;20305;-59
2021/10/09 08:20:41;;;;;;;;;;;22.00;57.20;;;;;;5057827;28;20389;-57
2021/10/09 08:23:21;;;;;;;;;;;22.00;57.20;;;;;;5084392;28;20008;-56
2021/10/09 08:38:57;;;;;;;;;;;22.00;57.10;;;;;;5062785;28;20019;-57
2021/10/09 08:41:45;;;;;;;;;;;22.00;57.00;;;;;;5068841;28;19929;-58
2021/10/09 08:44:12;;;;;;;;;;;22.00;57.00;;;;;;5064205;28;19929;-57
2021/10/09 08:46:39;;;;;;;;;;;22.00;57.00;;;;;;5063343;28;20435;-58
2021/10/09 08:49:07;;;;;;;;;;;22.00;57.00;;;;;;5072438;28;19978;-54
2021/10/09 08:51:34;;;;;;;;;;;22.00;56.90;;;;;;5072574;28;19974;-57
2021/10/09 08:54:08;;;;;;;;;;;22.10;57.60;;;;;;5072254;28;20011;-59
2021/10/09 08:56:44;;;;;;;;;;;22.10;57.00;;;;;;5090197;28;19973;-58
2021/10/09 08:59:15;;;;;;;;;;;22.10;57.00;;;;;;5072192;28;20420;-56
2021/10/09 09:04:28;;;;;;;;;;;22.00;56.90;;;;;;5054617;28;19972;-57
2021/10/09 09:07:16;;;;;;;;;;;22.10;56.90;;;;;;5054737;28;20421;-56
2021/10/09 09:37:12;;;;;;;;;;;22.10;56.90;;;;;;5089455;28;19924;-58
2021/10/09 09:39:43;;;;;;;;;;;22.00;56.80;;;;;;5073797;28;19954;-57
2021/10/09 09:42:11;;;;;;;;;;;22.10;56.90;;;;;;5071003;28;20342;-58
2021/10/09 09:44:52;;;;;;;;;;;22.10;56.90;;;;;;5071384;28;19986;-58
2021/10/09 09:47:31;;;;;;;;;;;22.00;56.80;;;;;;5070628;28;19924;-56
2021/10/09 09:49:58;;;;;;;;;;;22.10;56.90;;;;;;5071646;28;19924;-57
2021/10/09 09:52:25;;;;;;;;;;;22.10;56.90;;;;;;5071678;28;19983;-59
2021/10/09 09:54:53;;;;;;;;;;;22.10;56.80;;;;;;5072036;28;20291;-57
2021/10/09 09:57:20;;;;;;;;;;;22.00;56.70;;;;;;5071296;28;19972;-56
2021/10/09 09:59:49;;;;;;;;;;;22.10;56.80;;;;;;5073168;28;20011;-56
2021/10/09 10:02:18;;;;;;;;;;;22.00;56.80;;;;;;5070237;28;19986;-56
2021/10/09 10:04:45;;;;;;;;;;;22.00;56.70;;;;;;5074340;28;19967;-58
2021/10/09 10:07:12;;;;;;;;;;;22.00;56.70;;;;;;5071094;28;19925;-56
2021/10/09 10:09:39;;;;;;;;;;;22.00;56.70;;;;;;5071388;28;19925;-53
2021/10/09 10:12:06;;;;;;;;;;;22.00;56.70;;;;;;5071405;28;19928;-56
2021/10/09 10:14:34;;;;;;;;;;;22.00;56.70;;;;;;5053954;28;20274;-58
2021/10/09 10:17:01;;;;;;;;;;;22.10;56.70;;;;;;5053847;28;20443;-54
2021/10/09 10:19:47;;;;;;;;;;;22.00;56.70;;;;;;5069714;28;19967;-58
2021/10/09 10:22:14;;;;;;;;;;;22.00;56.70;;;;;;5071134;28;20380;-56
2021/10/09 10:24:42;;;;;;;;;;;22.00;56.70;;;;;;5058822;28;19924;-58
2021/10/09 10:27:28;;;;;;;;;;;22.00;56.70;;;;;;5067137;28;20023;-57
2021/10/09 10:30:15;;;;;;;;;;;22.00;56.70;;;;;;5075132;28;20024;-58
2021/10/09 10:32:56;;;;;;;;;;;22.00;57.30;;;;;;5064142;28;20316;-55
2021/10/09 10:35:32;;;;;;;;;;;22.00;56.70;;;;;;5071721;28;19925;-56
2021/10/09 10:38:06;;;;;;;;;;;22.00;56.70;;;;;;5063543;28;19925;-57
2021/10/09 10:40:46;;;;;;;;;;;22.00;56.70;;;;;;5070257;28;20323;-59
2021/10/09 10:46:01;;;;;;;;;;;22.00;56.70;;;;;;5085355;28;20422;-58
2021/10/09 10:48:48;;;;;;;;;;;22.00;56.60;;;;;;5090477;28;19938;-57
2021/10/09 10:56:58;;;;;;;;;;;22.00;56.70;;;;;;5075806;28;19989;-57
2021/10/09 10:59:35;;;;;;;;;;;22.00;56.60;;;;;;5075752;28;19932;-57
2021/10/09 11:02:08;;;;;;;;;;;22.00;56.60;;;;;;5064875;28;20439;-54
2021/10/09 11:04:37;;;;;;;;;;;22.00;56.60;;;;;;5067380;28;19974;-56
2021/10/09 11:07:04;;;;;;;;;;;22.00;56.50;;;;;;5069192;28;20430;-58
2021/10/09 11:09:31;;;;;;;;;;;22.00;57.10;;;;;;5064446;28;20012;-54
2021/10/09 11:11:58;;;;;;;;;;;22.00;56.50;;;;;;5074064;28;19971;-56
2021/10/09 11:14:26;;;;;;;;;;;22.00;56.50;;;;;;5075823;28;19925;-54
2021/10/09 11:17:03;;;;;;;;;;;22.00;56.50;;;;;;5074222;28;19932;-58
2021/10/09 11:19:42;;;;;;;;;;;22.00;56.50;;;;;;5056637;28;19948;-57
2021/10/09 11:22:10;;;;;;;;;;;22.00;56.50;;;;;;5056291;28;20293;-57
2021/10/09 11:24:40;;;;;;;;;;;22.00;56.40;;;;;;5074708;28;20065;-55
2021/10/09 11:27:07;;;;;;;;;;;22.00;56.40;;;;;;5072676;28;19978;-54
2021/10/09 11:29:34;;;;;;;;;;;22.00;56.40;;;;;;5088152;28;19924;-57
2021/10/09 11:32:03;;;;;;;;;;;22.00;56.40;;;;;;5066120;28;19967;-58
2021/10/09 11:34:30;;;;;;;;;;;22.00;56.40;;;;;;5068353;28;19978;-58
2021/10/09 11:36:57;;;;;;;;;;;22.00;56.40;;;;;;5067514;28;19925;-57
2021/10/09 11:39:27;;;;;;;;;;;22.00;56.30;;;;;;5061939;28;19924;-58
2021/10/09 11:42:05;;;;;;;;;;;22.00;56.30;;;;;;5073798;28;19964;-56
2021/10/09 11:44:37;;;;;;;;;;;22.10;56.40;;;;;;5074999;28;19978;-53
2021/10/09 11:53:36;;;;;;;;;;;22.00;56.30;;;;;;5060019;28;19928;-58
2021/10/09 11:55:27;;;;;;;;;;;22.00;56.30;;;;;;5072397;28;19932;-57
2021/10/09 11:57:55;;;;;;;;;;;22.00;56.30;;;;;;5074520;28;20042;-55
2021/10/09 12:00:28;;;;;;;;;;;22.00;56.30;;;;;;5074907;28;19931;-55
2021/10/09 12:02:55;;;;;;;;;;;22.10;56.40;;;;;;5073383;28;19995;-56
2021/10/09 12:05:23;;;;;;;;;;;22.00;56.30;;;;;;5057370;28;19932;-57
2021/10/09 12:08:15;;;;;;;;;;;22.00;56.20;;;;;;5075046;28;20326;-57
2021/10/09 12:11:02;;;;;;;;;;;22.10;56.30;;;;;;5072876;28;20343;-56
2021/10/09 12:13:29;;;;;;;;;;;22.00;56.20;;;;;;5072658;28;19994;-59
2021/10/09 12:16:08;;;;;;;;;;;22.00;56.30;;;;;;5073646;28;19974;-58
2021/10/09 12:19:05;;;;;;;;;;;22.00;56.30;;;;;;5055797;28;19951;-58
2021/10/09 12:21:39;;;;;;;;;;;22.00;56.20;;;;;;5053182;28;19925;-58
2021/10/09 12:24:17;;;;;;;;;;;22.00;56.20;;;;;;5055266;28;19925;-58
2021/10/09 12:26:59;;;;;;;;;;;22.10;56.30;;;;;;5055645;28;20340;-55
2021/10/09 12:29:26;;;;;;;;;;;22.00;56.20;;;;;;5090596;28;19924;-57
2021/10/09 12:31:54;;;;;;;;;;;22.00;56.20;;;;;;5074273;28;20043;-57
2021/10/09 12:34:25;;;;;;;;;;;22.10;56.30;;;;;;5059504;28;19995;-58
2021/10/09 12:37:08;;;;;;;;;;;22.10;56.60;;;;;;5070132;28;19928;-58
2021/10/09 12:39:35;;;;;;;;;;;22.00;56.20;;;;;;5071970;28;19977;-55
2021/10/09 12:42:02;;;;;;;;;;;22.00;56.20;;;;;;5074078;28;19970;-55
2021/10/09 12:44:29;;;;;;;;;;;22.10;56.30;;;;;;5074116;28;19986;-59
2021/10/09 12:46:55;;;;;;;;;;;22.00;56.20;;;;;;5066422;28;20341;-56
2021/10/09 12:49:22;;;;;;;;;;;22.00;56.20;;;;;;5065040;28;20021;-57
2021/10/09 12:51:49;;;;;;;;;;;22.00;56.20;;;;;;5084193;28;20000;-58
2021/10/09 12:54:18;;;;;;;;;;;22.00;56.20;;;;;;5071912;28;19932;-59
2021/10/09 12:56:46;;;;;;;;;;;22.00;56.20;;;;;;5073557;28;19924;-57
2021/10/09 12:59:13;;;;;;;;;;;22.00;56.20;;;;;;5072815;28;20011;-57
2021/10/09 13:01:40;;;;;;;;;;;22.10;56.20;;;;;;5072447;28;19933;-55
2021/10/09 13:04:07;;;;;;;;;;;22.00;56.20;;;;;;5073319;28;19924;-54
2021/10/09 13:06:34;;;;;;;;;;;22.00;56.20;;;;;;5071013;28;19928;-55
2021/10/09 13:09:01;;;;;;;;;;;22.10;56.20;;;;;;5073011;28;19924;-56
2021/10/09 13:11:31;;;;;;;;;;;22.00;56.20;;;;;;5072702;28;19924;-55
2021/10/09 13:13:58;;;;;;;;;;;22.00;56.20;;;;;;5074863;28;19974;-55
2021/10/09 13:16:25;;;;;;;;;;;22.00;56.20;;;;;;5073322;28;19978;-57
2021/10/09 13:18:52;;;;;;;;;;;22.10;56.20;;;;;;5071993;28;19931;-56
2021/10/09 13:21:21;;;;;;;;;;;22.10;56.20;;;;;;5071086;28;19974;-57
2021/10/09 13:23:48;;;;;;;;;;;22.00;56.10;;;;;;5073605;28;19971;-58
2021/10/09 13:26:15;;;;;;;;;;;22.10;56.20;;;;;;5072810;28;19928;-55
2021/10/09 13:28:41;;;;;;;;;;;22.00;56.20;;;;;;5071557;28;19979;-57
2021/10/09 13:31:08;;;;;;;;;;;22.10;56.20;;;;;;5071735;28;19924;-58
2021/10/09 13:33:35;;;;;;;;;;;22.10;56.20;;;;;;5071898;28;20205;-57
2021/10/09 13:36:05;;;;;;;;;;;22.00;56.20;;;;;;5061720;28;20019;-57
2021/10/09 13:38:33;;;;;;;;;;;22.00;56.20;;;;;;5064046;28;19925;-55
2021/10/09 13:41:00;;;;;;;;;;;22.10;56.20;;;;;;5065470;28;19924;-56
2021/10/09 13:43:27;;;;;;;;;;;22.10;56.20;;;;;;5060925;28;20015;-56
2021/10/09 13:45:54;;;;;;;;;;;22.10;56.20;;;;;;5074482;28;19931;-57
2021/10/09 13:48:21;;;;;;;;;;;22.10;56.20;;;;;;5118733;28;19968;-55
2021/10/09 13:50:52;;;;;;;;;;;22.00;56.20;;;;;;5055151;28;19929;-58
2021/10/09 13:53:20;;;;;;;;;;;22.10;56.20;;;;;;5055037;28;19968;-56
2021/10/09 13:55:48;;;;;;;;;;;22.10;56.20;;;;;;5070530;28;19924;-56
2021/10/09 13:58:15;;;;;;;;;;;22.10;56.20;;;;;;5071877;28;20304;-56
2021/10/09 14:00:43;;;;;;;;;;;22.10;56.20;;;;;;5058447;28;20015;-58
2021/10/09 14:03:11;;;;;;;;;;;22.10;56.20;;;;;;5070773;28;19929;-56
2021/10/09 14:05:38;;;;;;;;;;;22.10;56.20;;;;;;5075454;28;19999;-55
2021/10/09 14:08:05;;;;;;;;;;;22.10;56.20;;;;;;5076508;28;19974;-55
2021/10/09 14:10:32;;;;;;;;;;;22.10;56.20;;;;;;5075639;28;19970;-56
2021/10/09 14:13:00;;;;;;;;;;;22.00;56.20;;;;;;5072347;28;19947;-56
2021/10/09 14:15:28;;;;;;;;;;;22.10;56.30;;;;;;5061843;28;19924;-56
2021/10/09 14:17:55;;;;;;;;;;;22.10;56.20;;;;;;5070134;28;19924;-58
2021/10/09 14:20:22;;;;;;;;;;;22.10;56.30;;;;;;5076180;28;20380;-54
2021/10/09 14:22:51;;;;;;;;;;;22.10;56.30;;;;;;5074364;28;19931;-59
2021/10/09 14:25:18;;;;;;;;;;;22.10;56.30;;;;;;5060053;28;19936;-57
2021/10/09 14:27:45;;;;;;;;;;;22.10;56.30;;;;;;5073572;28;19980;-56
2021/10/09 14:30:12;;;;;;;;;;;22.00;56.20;;;;;;5086803;28;20345;-56
2021/10/09 14:32:40;;;;;;;;;;;22.10;56.30;;;;;;5072974;28;19990;-56
2021/10/09 14:35:07;;;;;;;;;;;22.00;56.80;;;;;;5059909;28;19931;-58
2021/10/09 14:37:35;;;;;;;;;;;22.10;56.30;;;;;;5066045;28;19924;-56
2021/10/09 14:40:02;;;;;;;;;;;22.10;56.30;;;;;;5076462;28;20022;-57
2021/10/09 14:42:30;;;;;;;;;;;22.10;56.40;;;;;;5076084;28;20368;-57
2021/10/09 14:44:57;;;;;;;;;;;22.10;56.40;;;;;;5076119;28;19932;-54
2021/10/09 15:17:32;;;;;;;;;;;22.00;56.40;;;;;;5060059;28;20434;-55
2021/10/09 15:20:01;;;;;;;;;;;22.00;56.40;;;;;;5058144;28;19956;-55
2021/10/09 15:22:28;;;;;;;;;;;22.00;56.40;;;;;;5074167;28;19932;-56
2021/10/09 15:24:55;;;;;;;;;;;22.00;56.40;;;;;;5055932;28;19928;-57
2021/10/09 15:27:26;;;;;;;;;;;22.00;56.40;;;;;;5057928;28;19987;-55
2021/10/09 15:29:55;;;;;;;;;;;22.00;56.40;;;;;;5060055;28;20380;-53
2021/10/09 15:32:24;;;;;;;;;;;22.00;56.40;;;;;;5071309;28;20411;-57
2021/10/09 15:34:51;;;;;;;;;;;22.00;56.40;;;;;;5063425;28;19925;-55
2021/10/09 15:37:18;;;;;;;;;;;22.00;56.50;;;;;;5059750;28;20015;-55
2021/10/09 15:39:46;;;;;;;;;;;22.00;56.50;;;;;;5067088;28;20262;-58
2021/10/09 15:42:13;;;;;;;;;;;22.00;56.50;;;;;;5110538;27;19924;-55
2021/10/09 15:44:40;;;;;;;;;;;22.00;56.60;;;;;;5084563;28;19924;-57
2021/10/09 15:47:07;;;;;;;;;;;22.00;56.60;;;;;;5058547;28;19932;-57
2021/10/09 15:49:34;;;;;;;;;;;22.00;56.60;;;;;;5089975;28;19968;-58
2021/10/09 15:52:01;;;;;;;;;;;22.00;56.60;;;;;;5056182;28;19925;-59
2021/10/09 15:54:28;;;;;;;;;;;22.00;56.60;;;;;;5074632;28;19976;-56
2021/10/09 15:56:55;;;;;;;;;;;22.00;56.60;;;;;;5074284;28;19931;-55
2021/10/09 15:59:22;;;;;;;;;;;21.90;56.50;;;;;;5072510;28;19997;-55
2021/10/09 16:01:49;;;;;;;;;;;22.00;56.70;;;;;;5072136;28;19932;-57
2021/10/09 16:04:17;;;;;;;;;;;21.90;56.60;;;;;;5073401;28;19932;-57
2021/10/09 16:06:45;;;;;;;;;;;22.00;56.70;;;;;;5072167;28;19924;-57
2021/10/09 16:09:12;;;;;;;;;;;21.90;56.60;;;;;;5074477;28;19931;-58
2021/10/09 16:11:42;;;;;;;;;;;21.90;56.70;;;;;;5073017;28;19928;-56
2021/10/09 16:14:11;;;;;;;;;;;21.90;56.70;;;;;;5071746;28;19978;-57
2021/10/09 16:16:38;;;;;;;;;;;21.90;56.70;;;;;;5074781;28;19950;-53
2021/10/09 16:19:05;;;;;;;;;;;21.90;56.70;;;;;;5056690;28;20357;-56
2021/10/09 16:21:32;;;;;;;;;;;21.90;56.70;;;;;;5057666;28;20008;-57
2021/10/09 16:23:59;;;;;;;;;;;21.90;56.80;;;;;;5087158;28;19963;-55
2021/10/09 16:26:26;;;;;;;;;;;21.90;56.80;;;;;;5074965;28;20399;-55
2021/10/09 16:28:53;;;;;;;;;;;21.90;56.80;;;;;;5063921;28;20077;-56
2021/10/09 16:31:23;;;;;;;;;;;21.90;56.90;;;;;;5059149;28;19924;-55
2021/10/09 16:33:52;;;;;;;;;;;21.90;56.90;;;;;;5065591;28;19931;-55
2021/10/09 16:36:19;;;;;;;;;;;21.90;56.90;;;;;;5071402;28;19932;-57
2021/10/09 16:38:47;;;;;;;;;;;21.90;56.90;;;;;;5073881;28;19924;-56
2021/10/09 16:41:14;;;;;;;;;;;21.80;56.90;;;;;;5072758;28;19931;-53
2021/10/09 16:43:42;;;;;;;;;;;21.80;56.90;;;;;;5074141;28;19989;-56
2021/10/09 16:46:09;;;;;;;;;;;21.80;56.90;;;;;;5088450;28;19993;-56
2021/10/09 16:48:36;;;;;;;;;;;21.80;56.90;;;;;;5072735;28;19929;-55
2021/10/09 16:51:03;;;;;;;;;;;21.80;56.90;;;;;;5072245;28;19970;-57
2021/10/09 16:53:30;;;;;;;;;;;21.80;57.00;;;;;;5085433;28;19973;-57
2021/10/09 16:55:56;;;;;;;;;;;21.80;57.00;;;;;;5077450;28;19925;-56
2021/10/09 16:58:23;;;;;;;;;;;21.80;57.00;;;;;;5065108;28;19925;-56
2021/10/09 17:00:50;;;;;;;;;;;21.80;57.00;;;;;;5056735;28;19964;-58
2021/10/09 17:03:18;;;;;;;;;;;21.80;57.00;;;;;;5063190;28;19932;-57
2021/10/09 17:05:45;;;;;;;;;;;21.80;57.10;;;;;;5069200;28;19932;-57
2021/10/09 17:08:12;;;;;;;;;;;21.80;57.10;;;;;;5056759;28;19925;-54
2021/10/09 17:10:39;;;;;;;;;;;21.80;57.10;;;;;;5057303;28;19946;-53
2021/10/09 17:13:06;;;;;;;;;;;21.70;57.00;;;;;;5072512;28;19968;-58